Pahokee, Florida
Current Conditions -  °F | °C
As of 8:35 AM on Friday 19 Dec 2014 (Local Time) from KOBE Reporting Station
Clear Clear  
Wind Chill: 52°   Ceiling: Unl
Heat Index: 52°   Visibility: 10mi
Dew Point: 52°   Wind: 3mph
Humidity: 100%   Direction: 20°NNE
Pressure: 30.13"   Gusts: NA
Location:  26.82°N, 80.66°W
Report Text: KOBE 191335Z AUTO 02003KT 10SM CLR 11/11 A3013 RMK AO2
Loading
Personal Weather Stations






























Interactive Weather Map New forecast layout! Learn more

10-Day Weather Forecast

Advertisements
Track Severe Weather on mobile